Roza A — TCRB7 — position and weather

sailwx.info

Track history (hours):
 
Tides and Currents Weather Stations Pressure Air Temp Water Temp Dewpoint Dewpoint Depression Visibility Wind Speed Wind Dir Waves Ship Positions

Roza A

Last reported at 2014-Jul-23 05:25 UTC. Time now 2014-Jul-23 09:52 UTC.
Position N 39°57' E 000°02'.

Length 169 m; draft 6.7 m.

Type: Ship (hazmat cat A). MMSI: 271001057.

Date/timePositionNaut miles runAvg speedWind from/ knotsBaromVisibWave heightAir tempDewpointWater temp
2014-Jul-23 05:25N 39°57' E 000°02'5 5.2
2014-Jul-23 04:25N 39°58' E 000°09'0 0.4
2014-Jul-23 03:31N 39°58' E 000°09'0 0.3
2014-Jul-23 02:33N 39°58' E 000°09'0 0.3
2014-Jul-23 01:33N 39°58' E 000°09'1 1.2
2014-Jul-23 00:32N 39°56' E 000°09'9 9.3
2014-Jul-22 23:33N 39°48' E 000°06'1010.4
2014-Jul-22 22:33N 39°39' W 000°01'1010.4
2014-Jul-22 21:33N 39°31' W 000°10'8 8.2
2014-Jul-22 20:33N 39°27' W 000°19'0 0.2
2014-Jul-22 19:31N 39°27' W 000°19'0 0.0
2014-Jul-22 18:31N 39°27' W 000°19'0 0.0
2014-Jul-22 17:31N 39°27' W 000°19'0 0.0
2014-Jul-22 16:31N 39°27' W 000°19'0 0.0
2014-Jul-22 15:31N 39°27' W 000°19'0 0.0
2014-Jul-22 14:31N 39°27' W 000°19'0 0.0
2014-Jul-22 13:31N 39°27' W 000°19'0 0.0
2014-Jul-22 12:31N 39°27' W 000°19'0 0.0
2014-Jul-22 11:31N 39°27' W 000°19'0 0.0
2014-Jul-22 10:31N 39°27' W 000°19'2 1.9
2014-Jul-22 09:33N 39°25' W 000°17'5811.2
2014-Jul-22 04:20N 39°16' E 000°57'911.4
2014-Jul-22 03:33N 39°14' E 001°08'1111.1
2014-Jul-22 02:31N 39°13' E 001°23'1010.8
2014-Jul-22 01:33N 39°12' E 001°36'1110.6
2014-Jul-22 00:33N 39°11' E 001°50'1010.4
2014-Jul-21 23:33N 39°10' E 002°03'1212.3
2014-Jul-21 22:33N 39°08' E 002°19'1514.6
2014-Jul-21 21:33N 39°06' E 002°38'1514.6
2014-Jul-21 20:33N 39°04' E 002°56'414.7
2014-Jul-21 20:18N 39°04' E 003°01'1114.9
2014-Jul-21 19:33N 39°04' E 003°15'1514.8
2014-Jul-21 18:33N 39°03' E 003°34'1515.0
2014-Jul-21 17:33N 39°02' E 003°54'289 9.5
2014-Jul-20 11:06N 38°39' E 010°03'814.2
2014-Jul-20 10:32N 38°35' E 010°12'2211.2
2014-Jul-20 08:33N 38°23' E 010°36'14010.7
2014-Jul-19 19:30N 37°08' E 013°05'9 9.8
2014-Jul-19 18:33N 37°05' E 013°16'1010.3
2014-Jul-19 17:33N 37°01' E 013°28'1110.5
2014-Jul-19 16:33N 36°57' E 013°40'1010.2
2014-Jul-19 15:33N 36°53' E 013°51'1010.4
2014-Jul-19 14:33N 36°49' E 014°03'1010.3
2014-Jul-19 13:33N 36°45' E 014°15'1110.6
2014-Jul-19 12:34N 36°40' E 014°27'1514.6
2014-Jul-19 11:34N 36°36' E 014°45'1515.0
2014-Jul-19 10:34N 36°33' E 015°03'38514.7
2014-Jul-18 08:18N 36°25' E 023°02'1513.4
2014-Jul-18 07:10N 36°32' E 023°19'1115.6
2014-Jul-18 06:30N 36°40' E 023°26'1515.6
2014-Jul-18 05:31N 36°54' E 023°36'1715.4
2014-Jul-18 04:24N 37°08' E 023°47'1315.3
2014-Jul-18 03:33N 37°19' E 023°55'1515.3
2014-Jul-18 02:33N 37°33' E 024°04'1615.1
2014-Jul-18 01:28N 37°44' E 024°19'1414.9
2014-Jul-18 00:34N 37°53' E 024°32'3415.0
2014-Jul-17 22:19N 38°15' E 025°05'1114.7
2014-Jul-17 21:32N 38°20' E 025°18'1414.8
2014-Jul-17 20:33N 38°28' E 025°34'1515.1
2014-Jul-17 19:33N 38°37' E 025°49'57 1.4
2014-Jul-16 03:29N 39°34' E 025°41'7013.9
2014-Jul-15 22:25N 40°25' E 026°43'  
Track history (hours):
 
Tides and Currents Weather Stations Pressure Air Temp Water Temp Dewpoint Dewpoint Depression Visibility Wind Speed Wind Dir Waves Ship Positions

Roza A

Last reported at 2014-Jul-23 05:25 UTC. Time now 2014-Jul-23 09:52 UTC.
Position N 39°57' E 000°02'.

Length 169 m; draft 6.7 m.

Type: Ship (hazmat cat A). MMSI: 271001057.

Date/timePositionNaut miles runAvg speedWind from/ knotsBaromVisibWave heightAir tempDewpointWater temp
2014-Jul-23 05:25N 39°57' E 000°02'5 5.2
2014-Jul-23 04:25N 39°58' E 000°09'0 0.4
2014-Jul-23 03:31N 39°58' E 000°09'0 0.3
2014-Jul-23 02:33N 39°58' E 000°09'0 0.3
2014-Jul-23 01:33N 39°58' E 000°09'1 1.2
2014-Jul-23 00:32N 39°56' E 000°09'9 9.3
2014-Jul-22 23:33N 39°48' E 000°06'1010.4
2014-Jul-22 22:33N 39°39' W 000°01'1010.4
2014-Jul-22 21:33N 39°31' W 000°10'8 8.2
2014-Jul-22 20:33N 39°27' W 000°19'0 0.2
2014-Jul-22 19:31N 39°27' W 000°19'0 0.0
2014-Jul-22 18:31N 39°27' W 000°19'0 0.0
2014-Jul-22 17:31N 39°27' W 000°19'0 0.0
2014-Jul-22 16:31N 39°27' W 000°19'0 0.0
2014-Jul-22 15:31N 39°27' W 000°19'0 0.0
2014-Jul-22 14:31N 39°27' W 000°19'0 0.0
2014-Jul-22 13:31N 39°27' W 000°19'0 0.0
2014-Jul-22 12:31N 39°27' W 000°19'0 0.0
2014-Jul-22 11:31N 39°27' W 000°19'0 0.0
2014-Jul-22 10:31N 39°27' W 000°19'2 1.9
2014-Jul-22 09:33N 39°25' W 000°17'5811.2
2014-Jul-22 04:20N 39°16' E 000°57'911.4
2014-Jul-22 03:33N 39°14' E 001°08'1111.1
2014-Jul-22 02:31N 39°13' E 001°23'1010.8
2014-Jul-22 01:33N 39°12' E 001°36'1110.6
2014-Jul-22 00:33N 39°11' E 001°50'1010.4
2014-Jul-21 23:33N 39°10' E 002°03'1212.3
2014-Jul-21 22:33N 39°08' E 002°19'1514.6
2014-Jul-21 21:33N 39°06' E 002°38'1514.6
2014-Jul-21 20:33N 39°04' E 002°56'414.7
2014-Jul-21 20:18N 39°04' E 003°01'1114.9
2014-Jul-21 19:33N 39°04' E 003°15'1514.8
2014-Jul-21 18:33N 39°03' E 003°34'1515.0
2014-Jul-21 17:33N 39°02' E 003°54'289 9.5
2014-Jul-20 11:06N 38°39' E 010°03'814.2
2014-Jul-20 10:32N 38°35' E 010°12'2211.2
2014-Jul-20 08:33N 38°23' E 010°36'14010.7
2014-Jul-19 19:30N 37°08' E 013°05'9 9.8
2014-Jul-19 18:33N 37°05' E 013°16'1010.3
2014-Jul-19 17:33N 37°01' E 013°28'1110.5
2014-Jul-19 16:33N 36°57' E 013°40'1010.2
2014-Jul-19 15:33N 36°53' E 013°51'1010.4
2014-Jul-19 14:33N 36°49' E 014°03'1010.3
2014-Jul-19 13:33N 36°45' E 014°15'1110.6
2014-Jul-19 12:34N 36°40' E 014°27'1514.6
2014-Jul-19 11:34N 36°36' E 014°45'1515.0
2014-Jul-19 10:34N 36°33' E 015°03'38514.7
2014-Jul-18 08:18N 36°25' E 023°02'1513.4
2014-Jul-18 07:10N 36°32' E 023°19'1115.6
2014-Jul-18 06:30N 36°40' E 023°26'1515.6
2014-Jul-18 05:31N 36°54' E 023°36'1715.4
2014-Jul-18 04:24N 37°08' E 023°47'1315.3
2014-Jul-18 03:33N 37°19' E 023°55'1515.3
2014-Jul-18 02:33N 37°33' E 024°04'1615.1
2014-Jul-18 01:28N 37°44' E 024°19'1414.9
2014-Jul-18 00:34N 37°53' E 024°32'3415.0
2014-Jul-17 22:19N 38°15' E 025°05'1114.7
2014-Jul-17 21:32N 38°20' E 025°18'1414.8
2014-Jul-17 20:33N 38°28' E 025°34'1515.1
2014-Jul-17 19:33N 38°37' E 025°49'57 1.4
2014-Jul-16 03:29N 39°34' E 025°41'7013.9
2014-Jul-15 22:25N 40°25' E 026°43'  

Dump ship's entire track history